Time;durP1;ratioP1;P1;durP2;ratioP2;P2;SDS_P1;SDS_P2;PMS_P1;PMS_P2;Temp;Humidity;BMP_temperature;BMP_pressure;BME280_temperature;BME280_humidity;BME280_pressure;Samples;Min_cycle;Max_cycle;Signal;HPM_P1;HPM_P2
2022/05/01 00:02:15;;;;;;;27.25;12.98;;;;;;;;;;4974953;28;20027;-63
2022/05/01 00:04:42;;;;;;;26.73;12.80;;;;;;;;;;4987104;28;20023;-63
2022/05/01 00:07:12;;;;;;;27.38;12.77;;;;;;;;;;4979817;28;20044;-63
2022/05/01 00:09:39;;;;;;;27.70;13.07;;;;;;;;;;4979407;28;20464;-63
2022/05/01 00:12:07;;;;;;;26.67;11.43;;;;;;;;;;4987182;28;20545;-63
2022/05/01 00:14:33;;;;;;;20.58;12.10;;;;;;;;;;4975187;28;20476;-63
2022/05/01 00:17:03;;;;;;;23.55;10.93;;;;;;;;;;4984453;28;20030;-63
2022/05/01 00:19:30;;;;;;;19.42;10.82;;;;;;;;;;4982175;28;20080;-63
2022/05/01 00:21:58;;;;;;;20.40;11.25;;;;;;;;;;4976940;28;20161;-63
2022/05/01 00:24:24;;;;;;;25.13;10.88;;;;;;;;;;4987263;28;20031;-63
2022/05/01 00:26:51;;;;;;;22.23;10.68;;;;;;;;;;4976846;28;20031;-63
2022/05/01 00:29:17;;;;;;;28.83;11.30;;;;;;;;;;4989364;28;20037;-63
2022/05/01 00:31:43;;;;;;;20.08;11.07;;;;;;;;;;4990887;28;20426;-63
2022/05/01 00:36:54;;;;;;;23.50;10.50;;;;;;;;;;4985490;28;20030;-63
2022/05/01 00:39:20;;;;;;;21.90;10.93;;;;;;;;;;4980370;28;20403;-63
2022/05/01 00:41:46;;;;;;;23.05;10.90;;;;;;;;;;4978114;28;20038;-63
2022/05/01 00:44:13;;;;;;;21.40;10.10;;;;;;;;;;4987308;28;20030;-63
2022/05/01 00:46:41;;;;;;;26.45;11.38;;;;;;;;;;4974907;28;20041;-63
2022/05/01 00:49:15;;;;;;;19.05;10.60;;;;;;;;;;4983322;28;20578;-63
2022/05/01 00:51:47;;;;;;;30.45;11.93;;;;;;;;;;4983246;28;20038;-63
2022/05/01 00:54:14;;;;;;;21.80;9.65;;;;;;;;;;4974477;28;20030;-63
2022/05/01 00:56:41;;;;;;;24.90;11.07;;;;;;;;;;4974514;28;20134;-63
2022/05/01 00:59:09;;;;;;;25.58;9.68;;;;;;;;;;4990112;28;20033;-63
2022/05/01 01:01:35;;;;;;;25.58;10.60;;;;;;;;;;4979665;28;20046;-63
2022/05/01 01:04:01;;;;;;;19.33;9.63;;;;;;;;;;4985525;28;20109;-63
2022/05/01 01:06:29;;;;;;;26.55;11.85;;;;;;;;;;4974064;28;20523;-63
2022/05/01 01:08:55;;;;;;;24.30;11.50;;;;;;;;;;4984946;28;20054;-63
2022/05/01 01:11:21;;;;;;;20.08;11.15;;;;;;;;;;4979902;28;20049;-63
2022/05/01 01:13:48;;;;;;;20.48;9.90;;;;;;;;;;4977783;28;20043;-63
2022/05/01 01:16:14;;;;;;;24.30;10.68;;;;;;;;;;4986662;28;20026;-63
2022/05/01 01:18:40;;;;;;;20.15;9.88;;;;;;;;;;4974281;28;20022;-63
2022/05/01 01:21:10;;;;;;;20.30;9.82;;;;;;;;;;4983603;28;20338;-63
2022/05/01 01:23:37;;;;;;;19.80;10.15;;;;;;;;;;4980157;28;20069;-63
2022/05/01 01:26:06;;;;;;;23.92;10.73;;;;;;;;;;4975785;28;20026;-63
2022/05/01 01:28:36;;;;;;;20.33;10.57;;;;;;;;;;4986549;28;20045;-63
2022/05/01 01:33:51;;;;;;;23.23;10.43;;;;;;;;;;4977778;28;20038;-63
2022/05/01 01:36:18;;;;;;;18.45;10.80;;;;;;;;;;4986404;28;20029;-63
2022/05/01 01:38:44;;;;;;;16.05;10.10;;;;;;;;;;4973815;28;20022;-63
2022/05/01 01:41:12;;;;;;;19.17;10.80;;;;;;;;;;4981705;28;20026;-63
2022/05/01 01:43:39;;;;;;;20.65;10.07;;;;;;;;;;4978542;28;20038;-63
2022/05/01 01:46:05;;;;;;;24.88;10.02;;;;;;;;;;4978488;28;20030;-63
2022/05/01 01:48:31;;;;;;;20.08;9.65;;;;;;;;;;4985984;28;20033;-63
2022/05/01 01:51:02;;;;;;;16.95;9.48;;;;;;;;;;4975737;28;20023;-63
2022/05/01 01:53:29;;;;;;;24.73;11.18;;;;;;;;;;4980109;28;20035;-63
2022/05/01 01:55:57;;;;;;;22.73;10.82;;;;;;;;;;4983269;28;20041;-63
2022/05/01 01:58:23;;;;;;;22.25;10.35;;;;;;;;;;4976814;28;20121;-63
2022/05/01 02:00:50;;;;;;;21.08;11.55;;;;;;;;;;4985880;28;20472;-63
2022/05/01 02:03:16;;;;;;;24.88;10.85;;;;;;;;;;4977776;28;20080;-63
2022/05/01 02:05:42;;;;;;;19.38;10.02;;;;;;;;;;4978826;28;20557;-63
2022/05/01 02:08:08;;;;;;;23.48;10.05;;;;;;;;;;4984773;28;20038;-63
2022/05/01 02:10:35;;;;;;;24.05;9.82;;;;;;;;;;4979536;28;20041;-63
2022/05/01 02:13:03;;;;;;;18.83;10.07;;;;;;;;;;4990759;28;20034;-63
2022/05/01 02:15:32;;;;;;;20.63;10.15;;;;;;;;;;4985329;28;20011;-63
2022/05/01 02:17:59;;;;;;;28.60;9.90;;;;;;;;;;4983109;28;20027;-63
2022/05/01 02:21:33;;;;;;;22.63;10.18;;;;;;;;;;4992354;28;20026;-63
2022/05/01 02:23:15;;;;;;;19.17;9.05;;;;;;;;;;4983270;28;20035;-63
2022/05/01 02:25:42;;;;;;;17.35;9.52;;;;;;;;;;4985361;28;20080;-63
2022/05/01 02:28:08;;;;;;;16.98;9.85;;;;;;;;;;4990528;28;20023;-63
2022/05/01 02:30:34;;;;;;;18.08;9.75;;;;;;;;;;4979432;28;20121;-63
2022/05/01 02:33:00;;;;;;;20.60;10.52;;;;;;;;;;4991176;28;20030;-63
2022/05/01 02:35:26;;;;;;;22.00;10.05;;;;;;;;;;4984173;28;20022;-63
2022/05/01 02:37:52;;;;;;;21.25;10.73;;;;;;;;;;4984336;28;20128;-63
2022/05/01 02:40:18;;;;;;;31.10;12.15;;;;;;;;;;4991832;28;20033;-63
2022/05/01 02:42:44;;;;;;;24.77;10.65;;;;;;;;;;4979287;28;20034;-63
2022/05/01 02:45:11;;;;;;;23.63;13.65;;;;;;;;;;4989761;28;20019;-63
2022/05/01 02:47:37;;;;;;;26.02;10.85;;;;;;;;;;4985676;28;20037;-63
2022/05/01 02:50:03;;;;;;;28.55;12.20;;;;;;;;;;4982494;28;20050;-63
2022/05/01 02:52:29;;;;;;;23.48;11.52;;;;;;;;;;4991990;28;20526;-63
2022/05/01 02:54:55;;;;;;;23.25;11.88;;;;;;;;;;4975494;28;20023;-63
2022/05/01 02:57:22;;;;;;;23.13;11.48;;;;;;;;;;4976431;28;20077;-63
2022/05/01 02:59:48;;;;;;;19.63;12.43;;;;;;;;;;4991234;28;20023;-63
2022/05/01 03:02:15;;;;;;;31.77;12.20;;;;;;;;;;4981515;28;20475;-63
2022/05/01 03:04:41;;;;;;;23.35;12.60;;;;;;;;;;4991547;28;20377;-63
2022/05/01 03:07:07;;;;;;;32.67;13.50;;;;;;;;;;4981332;28;20022;-63
2022/05/01 03:09:35;;;;;;;26.77;12.15;;;;;;;;;;4986593;28;20475;-63
2022/05/01 03:12:03;;;;;;;24.45;11.50;;;;;;;;;;4988312;28;20117;-63
2022/05/01 03:14:29;;;;;;;25.52;11.13;;;;;;;;;;4979167;28;20066;-63
2022/05/01 03:16:55;;;;;;;25.67;12.75;;;;;;;;;;4991935;28;20023;-63
2022/05/01 03:22:15;;;;;;;18.05;9.60;;;;;;;;;;4978685;28;20027;-63
2022/05/01 03:24:42;;;;;;;21.92;10.35;;;;;;;;;;4988258;28;20030;-63
2022/05/01 03:27:09;;;;;;;28.08;11.55;;;;;;;;;;4977831;28;20018;-63
2022/05/01 03:29:36;;;;;;;28.17;11.48;;;;;;;;;;4983498;28;20037;-63
2022/05/01 03:32:04;;;;;;;19.55;11.02;;;;;;;;;;4984693;28;20034;-63
2022/05/01 03:34:30;;;;;;;17.83;10.60;;;;;;;;;;4975728;28;20052;-63
2022/05/01 03:36:56;;;;;;;21.23;10.52;;;;;;;;;;4988439;28;20480;-63
2022/05/01 03:39:22;;;;;;;22.00;11.23;;;;;;;;;;4980439;28;20472;-63
2022/05/01 03:41:48;;;;;;;20.90;11.18;;;;;;;;;;4991033;28;20037;-63
2022/05/01 03:44:14;;;;;;;19.00;11.02;;;;;;;;;;4991553;28;20082;-63
2022/05/01 03:46:41;;;;;;;17.23;11.27;;;;;;;;;;4991397;28;20059;-63
2022/05/01 03:49:07;;;;;;;20.38;10.63;;;;;;;;;;4991231;28;20053;-63
2022/05/01 03:51:33;;;;;;;20.92;11.07;;;;;;;;;;4991513;28;20030;-63
2022/05/01 03:54:02;;;;;;;17.33;9.93;;;;;;;;;;4991197;28;20037;-63
2022/05/01 03:56:29;;;;;;;17.13;10.68;;;;;;;;;;4991290;28;20026;-63
2022/05/01 03:58:55;;;;;;;18.88;10.80;;;;;;;;;;4991207;28;20048;-63
2022/05/01 04:01:22;;;;;;;17.23;10.32;;;;;;;;;;4977126;28;20088;-63
2022/05/01 04:03:48;;;;;;;21.25;10.70;;;;;;;;;;4971333;28;20492;-63
2022/05/01 04:06:14;;;;;;;21.83;10.73;;;;;;;;;;4982911;28;20097;-63
2022/05/01 04:08:42;;;;;;;44.05;12.18;;;;;;;;;;4981302;28;20027;-63
2022/05/01 04:11:08;;;;;;;18.95;10.43;;;;;;;;;;4989733;28;20109;-63
2022/05/01 04:13:35;;;;;;;18.20;10.50;;;;;;;;;;4983293;28;20042;-63
2022/05/01 04:16:02;;;;;;;21.02;10.90;;;;;;;;;;4987338;28;20102;-63
2022/05/01 04:18:28;;;;;;;19.80;11.30;;;;;;;;;;4977869;28;20026;-63
2022/05/01 04:20:54;;;;;;;21.13;10.43;;;;;;;;;;4980815;28;20027;-63
2022/05/01 04:23:21;;;;;;;25.23;11.07;;;;;;;;;;4979664;28;20035;-63
2022/05/01 04:25:47;;;;;;;16.80;10.57;;;;;;;;;;4986931;28;20124;-63
2022/05/01 04:28:13;;;;;;;21.40;10.57;;;;;;;;;;4975896;28;20041;-63
2022/05/01 04:30:40;;;;;;;25.83;12.52;;;;;;;;;;4982956;28;20030;-63
2022/05/01 04:33:10;;;;;;;19.42;10.27;;;;;;;;;;4981831;28;20511;-63
2022/05/01 04:35:37;;;;;;;18.33;9.85;;;;;;;;;;4979152;28;20082;-63
2022/05/01 04:38:07;;;;;;;17.58;9.77;;;;;;;;;;4982767;28;20025;-63
2022/05/01 04:40:38;;;;;;;18.77;9.65;;;;;;;;;;4987425;28;20082;-63
2022/05/01 04:43:05;;;;;;;21.70;10.52;;;;;;;;;;4989426;28;20034;-63
2022/05/01 04:45:31;;;;;;;21.58;10.00;;;;;;;;;;4976830;28;20389;-63
2022/05/01 04:47:58;;;;;;;19.33;10.65;;;;;;;;;;5015929;28;20037;-63
2022/05/01 04:50:25;;;;;;;18.23;9.93;;;;;;;;;;4985803;28;20029;-63
2022/05/01 04:52:51;;;;;;;27.60;10.80;;;;;;;;;;4977114;28;20035;-63
2022/05/01 04:55:17;;;;;;;16.85;10.40;;;;;;;;;;4983556;28;20022;-63
2022/05/01 04:57:44;;;;;;;17.10;10.40;;;;;;;;;;4987709;28;20561;-63
2022/05/01 05:00:10;;;;;;;19.58;10.95;;;;;;;;;;4971777;28;20026;-63
2022/05/01 05:02:37;;;;;;;18.23;10.10;;;;;;;;;;4977181;28;20068;-63
2022/05/01 05:05:04;;;;;;;21.92;10.90;;;;;;;;;;4980522;28;20062;-63
2022/05/01 05:07:34;;;;;;;19.60;11.35;;;;;;;;;;4983602;28;20404;-63
2022/05/01 05:10:01;;;;;;;21.17;11.82;;;;;;;;;;4988454;28;20034;-63
2022/05/01 05:12:27;;;;;;;19.85;10.77;;;;;;;;;;4981445;28;20023;-63
2022/05/01 05:14:55;;;;;;;22.40;11.32;;;;;;;;;;5011751;28;20028;-63
2022/05/01 05:17:22;;;;;;;24.38;12.10;;;;;;;;;;4989332;28;20031;-63
2022/05/01 05:19:48;;;;;;;18.88;11.50;;;;;;;;;;4974351;28;20095;-63
2022/05/01 05:22:15;;;;;;;17.88;11.10;;;;;;;;;;4976914;28;20018;-65
2022/05/01 05:24:41;;;;;;;19.77;11.43;;;;;;;;;;4977301;28;20042;-63
2022/05/01 05:27:07;;;;;;;21.00;10.75;;;;;;;;;;4975573;28;20023;-63
2022/05/01 05:29:34;;;;;;;22.55;11.00;;;;;;;;;;4976809;28;20100;-63
2022/05/01 05:32:00;;;;;;;18.90;11.05;;;;;;;;;;4977757;28;20511;-63
2022/05/01 05:34:27;;;;;;;19.27;11.57;;;;;;;;;;4976495;28;20087;-63
2022/05/01 05:36:53;;;;;;;21.38;10.90;;;;;;;;;;4977111;28;20103;-63
2022/05/01 05:39:19;;;;;;;19.70;11.18;;;;;;;;;;4975225;28;20079;-63
2022/05/01 05:41:45;;;;;;;22.50;11.77;;;;;;;;;;4977079;28;20029;-63
2022/05/01 05:44:11;;;;;;;22.55;10.90;;;;;;;;;;4970884;28;20026;-63
2022/05/01 05:46:37;;;;;;;20.20;11.90;;;;;;;;;;4978330;28;20034;-63
2022/05/01 05:49:04;;;;;;;19.23;11.23;;;;;;;;;;4974234;28;20101;-63
2022/05/01 05:51:30;;;;;;;21.52;11.20;;;;;;;;;;4975365;28;20035;-63
2022/05/01 05:53:57;;;;;;;22.95;11.60;;;;;;;;;;4980028;28;20407;-63
2022/05/01 05:56:23;;;;;;;24.83;11.85;;;;;;;;;;4987240;28;20076;-64
2022/05/01 05:58:50;;;;;;;24.52;12.38;;;;;;;;;;4976242;28;20037;-64
2022/05/01 06:01:16;;;;;;;26.02;12.07;;;;;;;;;;4974639;28;20404;-64
2022/05/01 06:03:42;;;;;;;20.98;13.10;;;;;;;;;;4974942;28;20027;-64
2022/05/01 06:06:09;;;;;;;23.23;12.23;;;;;;;;;;4976855;28;20131;-64
2022/05/01 06:08:36;;;;;;;26.77;12.73;;;;;;;;;;4988277;28;20038;-64
2022/05/01 06:11:02;;;;;;;18.48;12.02;;;;;;;;;;4983172;28;20053;-64
2022/05/01 06:13:28;;;;;;;22.88;11.88;;;;;;;;;;4976289;28;20031;-64
2022/05/01 06:15:54;;;;;;;24.67;12.57;;;;;;;;;;4972073;28;20019;-64
2022/05/01 06:18:21;;;;;;;27.77;13.30;;;;;;;;;;4980909;28;20030;-64
2022/05/01 06:20:47;;;;;;;21.85;11.80;;;;;;;;;;4982423;28;20106;-64
2022/05/01 06:23:14;;;;;;;19.67;12.07;;;;;;;;;;4981468;28;20037;-63
2022/05/01 06:25:43;;;;;;;22.73;12.18;;;;;;;;;;4974774;28;20031;-64
2022/05/01 06:28:12;;;;;;;25.38;13.10;;;;;;;;;;4983114;28;20069;-63
2022/05/01 06:30:39;;;;;;;23.63;13.07;;;;;;;;;;4972216;28;20054;-64
2022/05/01 06:33:08;;;;;;;23.98;13.65;;;;;;;;;;4977010;28;20030;-64
2022/05/01 06:35:34;;;;;;;27.35;13.98;;;;;;;;;;4969262;28;20983;-64
2022/05/01 06:38:00;;;;;;;19.90;12.55;;;;;;;;;;4975548;28;20038;-64
2022/05/01 06:40:26;;;;;;;25.90;13.10;;;;;;;;;;4977961;28;20092;-64
2022/05/01 06:42:53;;;;;;;26.33;12.93;;;;;;;;;;4975868;28;20039;-64
2022/05/01 06:45:19;;;;;;;36.88;15.82;;;;;;;;;;4981410;28;20030;-64
2022/05/01 06:47:45;;;;;;;26.23;14.02;;;;;;;;;;4980172;28;20407;-64
2022/05/01 06:50:11;;;;;;;27.73;13.32;;;;;;;;;;4981929;28;20031;-64
2022/05/01 06:52:37;;;;;;;26.45;13.70;;;;;;;;;;4975561;28;20061;-64
2022/05/01 06:55:04;;;;;;;28.55;14.75;;;;;;;;;;4981924;28;20022;-64
2022/05/01 06:57:31;;;;;;;23.55;14.18;;;;;;;;;;4974766;28;20061;-64
2022/05/01 06:59:57;;;;;;;24.17;13.88;;;;;;;;;;4979237;28;20157;-64
2022/05/01 07:02:23;;;;;;;23.17;12.98;;;;;;;;;;4978572;28;20045;-64
2022/05/01 07:04:49;;;;;;;24.58;13.75;;;;;;;;;;4978998;28;20026;-64
2022/05/01 07:07:15;;;;;;;30.92;13.80;;;;;;;;;;4985317;28;20498;-64
2022/05/01 07:09:41;;;;;;;25.70;14.35;;;;;;;;;;4977116;28;20035;-64
2022/05/01 07:12:10;;;;;;;27.88;14.65;;;;;;;;;;4979803;28;20156;-64
2022/05/01 07:14:38;;;;;;;27.40;14.23;;;;;;;;;;4976919;28;20073;-64
2022/05/01 07:17:04;;;;;;;29.02;14.23;;;;;;;;;;4987308;28;20125;-64
2022/05/01 07:19:30;;;;;;;31.55;14.68;;;;;;;;;;4986710;28;20026;-64
2022/05/01 07:21:56;;;;;;;29.98;14.88;;;;;;;;;;4984454;28;20119;-63
2022/05/01 07:24:23;;;;;;;33.30;14.63;;;;;;;;;;4985066;28;20416;-64
2022/05/01 07:26:49;;;;;;;34.75;16.67;;;;;;;;;;4982377;28;20026;-64
2022/05/01 07:29:15;;;;;;;32.78;16.10;;;;;;;;;;4981343;28;20394;-64
2022/05/01 07:31:42;;;;;;;30.58;15.45;;;;;;;;;;4977487;28;20104;-64
2022/05/01 07:34:10;;;;;;;29.73;13.77;;;;;;;;;;4984472;28;20031;-64
2022/05/01 07:36:36;;;;;;;30.65;14.48;;;;;;;;;;4984115;28;20027;-64
2022/05/01 07:39:02;;;;;;;28.10;13.07;;;;;;;;;;4988731;28;20108;-64
2022/05/01 07:41:29;;;;;;;27.63;13.23;;;;;;;;;;4986780;28;20400;-64
2022/05/01 07:43:58;;;;;;;25.75;13.20;;;;;;;;;;4987718;28;20508;-64
2022/05/01 07:46:24;;;;;;;27.30;13.50;;;;;;;;;;4984127;28;20047;-64
2022/05/01 07:48:50;;;;;;;24.63;11.98;;;;;;;;;;4975976;28;20041;-64
2022/05/01 07:51:16;;;;;;;26.60;12.52;;;;;;;;;;4980002;28;20057;-63
2022/05/01 07:53:42;;;;;;;21.15;12.52;;;;;;;;;;4980220;28;20500;-64
2022/05/01 07:56:09;;;;;;;21.15;12.13;;;;;;;;;;4980985;28;20034;-64
2022/05/01 07:58:35;;;;;;;22.40;11.73;;;;;;;;;;4971209;28;20096;-64
2022/05/01 08:01:03;;;;;;;22.38;11.18;;;;;;;;;;4972051;28;20391;-64
2022/05/01 08:06:14;;;;;;;22.65;12.13;;;;;;;;;;4972244;28;20104;-64
2022/05/01 08:08:40;;;;;;;20.63;11.38;;;;;;;;;;4983900;28;20068;-64
2022/05/01 08:11:07;;;;;;;21.40;11.73;;;;;;;;;;4982463;28;20040;-64
2022/05/01 08:13:34;;;;;;;22.45;12.18;;;;;;;;;;4979017;28;20034;-64
2022/05/01 08:16:00;;;;;;;21.95;11.32;;;;;;;;;;4981179;28;20096;-64
2022/05/01 08:21:11;;;;;;;21.00;10.18;;;;;;;;;;4976068;28;21023;-64
2022/05/01 08:23:41;;;;;;;18.77;11.23;;;;;;;;;;4981744;28;20045;-64
2022/05/01 08:26:10;;;;;;;17.08;10.57;;;;;;;;;;4975910;28;20513;-64
2022/05/01 08:28:37;;;;;;;20.77;10.77;;;;;;;;;;4981523;28;20126;-64
2022/05/01 08:31:05;;;;;;;20.33;10.20;;;;;;;;;;4975122;28;20468;-64
2022/05/01 08:33:31;;;;;;;16.55;9.88;;;;;;;;;;4971945;28;20487;-64
2022/05/01 08:35:58;;;;;;;18.63;9.80;;;;;;;;;;4969529;28;20023;-64
2022/05/01 08:38:24;;;;;;;22.05;10.88;;;;;;;;;;4977404;28;20019;-64
2022/05/01 08:40:51;;;;;;;19.85;10.43;;;;;;;;;;4983791;28;20031;-64
2022/05/01 08:43:20;;;;;;;19.50;9.57;;;;;;;;;;4981250;28;20026;-64
2022/05/01 08:46:05;;;;;;;21.45;10.48;;;;;;;;;;4988979;28;20045;-64
2022/05/01 08:48:45;;;;;;;20.38;9.63;;;;;;;;;;4973895;28;20030;-64
2022/05/01 08:51:11;;;;;;;16.08;9.52;;;;;;;;;;4972571;28;20385;-64
2022/05/01 08:53:38;;;;;;;14.95;9.57;;;;;;;;;;4983881;28;20091;-64
2022/05/01 08:56:07;;;;;;;17.17;9.73;;;;;;;;;;4974579;28;20496;-64
2022/05/01 08:58:35;;;;;;;16.70;10.77;;;;;;;;;;4974005;28;20508;-65
2022/05/01 09:01:01;;;;;;;17.92;10.38;;;;;;;;;;4985699;28;20093;-64
2022/05/01 09:03:27;;;;;;;17.30;9.82;;;;;;;;;;4984879;28;20026;-64
2022/05/01 09:05:53;;;;;;;18.17;10.15;;;;;;;;;;4974254;28;20620;-64
2022/05/01 09:08:22;;;;;;;17.38;9.95;;;;;;;;;;4982479;28;21054;-65
2022/05/01 09:10:48;;;;;;;15.77;9.27;;;;;;;;;;4976506;28;20026;-66
2022/05/01 09:13:15;;;;;;;20.90;9.63;;;;;;;;;;4979116;28;20027;-66
2022/05/01 09:15:44;;;;;;;22.40;10.60;;;;;;;;;;4977793;28;20065;-66
2022/05/01 09:18:10;;;;;;;12.05;8.50;;;;;;;;;;4977334;28;20389;-66
2022/05/01 09:20:39;;;;;;;14.73;8.18;;;;;;;;;;4977012;28;20035;-66
2022/05/01 09:23:06;;;;;;;15.30;7.93;;;;;;;;;;4977898;28;20568;-66
2022/05/01 09:25:33;;;;;;;14.23;7.47;;;;;;;;;;4987061;28;20387;-66
2022/05/01 09:28:00;;;;;;;16.48;7.63;;;;;;;;;;4984724;28;20034;-66
2022/05/01 09:30:33;;;;;;;17.95;7.95;;;;;;;;;;4976193;28;20095;-66
2022/05/01 09:33:00;;;;;;;19.63;7.40;;;;;;;;;;4981880;28;20139;-66
2022/05/01 09:35:31;;;;;;;12.15;8.00;;;;;;;;;;4973286;28;20031;-66
2022/05/01 09:38:16;;;;;;;14.05;7.05;;;;;;;;;;4972378;28;20506;-66
2022/05/01 09:40:43;;;;;;;8.05;5.60;;;;;;;;;;4979923;28;20106;-66
2022/05/01 09:43:09;;;;;;;13.60;7.20;;;;;;;;;;4974972;28;20038;-66
2022/05/01 09:45:35;;;;;;;12.18;6.20;;;;;;;;;;4974333;28;20512;-66
2022/05/01 09:48:01;;;;;;;8.27;5.38;;;;;;;;;;4975604;28;20045;-66
2022/05/01 09:50:42;;;;;;;8.77;5.65;;;;;;;;;;4984364;28;20034;-66
2022/05/01 09:53:09;;;;;;;8.35;5.32;;;;;;;;;;4985810;28;20039;-66
2022/05/01 09:55:35;;;;;;;9.18;5.97;;;;;;;;;;4976780;28;20041;-66
2022/05/01 09:58:02;;;;;;;8.93;5.47;;;;;;;;;;4978865;28;20038;-66
2022/05/01 10:00:36;;;;;;;9.88;5.15;;;;;;;;;;4974652;28;20467;-66
2022/05/01 10:03:21;;;;;;;9.20;4.95;;;;;;;;;;4978822;28;20030;-66
2022/05/01 10:05:50;;;;;;;12.32;5.50;;;;;;;;;;4977975;28;20357;-66
2022/05/01 10:08:20;;;;;;;7.45;4.82;;;;;;;;;;4973079;28;20454;-66
2022/05/01 10:10:47;;;;;;;11.68;3.88;;;;;;;;;;4977940;28;20034;-67
2022/05/01 10:13:14;;;;;;;11.05;4.63;;;;;;;;;;4980424;28;20400;-67
2022/05/01 10:15:40;;;;;;;9.98;4.95;;;;;;;;;;4979950;28;20037;-67
2022/05/01 10:18:07;;;;;;;8.50;4.35;;;;;;;;;;4983403;28;20560;-67
2022/05/01 10:20:37;;;;;;;6.97;4.45;;;;;;;;;;4984205;28;20412;-67
2022/05/01 10:23:03;;;;;;;11.38;4.55;;;;;;;;;;4974585;28;20510;-67
2022/05/01 10:25:34;;;;;;;8.95;4.25;;;;;;;;;;4979872;28;20035;-67
2022/05/01 10:28:21;;;;;;;8.20;3.78;;;;;;;;;;4970941;28;20031;-67
2022/05/01 10:33:50;;;;;;;12.32;4.30;;;;;;;;;;5048518;28;20073;-67
2022/05/01 10:36:28;;;;;;;6.40;4.05;;;;;;;;;;5045851;28;20067;-67
2022/05/01 10:39:09;;;;;;;11.25;5.53;;;;;;;;;;5046140;28;20514;-67
2022/05/01 10:41:35;;;;;;;5.80;3.92;;;;;;;;;;5044047;28;20502;-67
2022/05/01 10:44:02;;;;;;;11.00;4.45;;;;;;;;;;5045546;28;20029;-67
2022/05/01 10:46:29;;;;;;;7.43;4.63;;;;;;;;;;5043738;28;20040;-67
2022/05/01 10:49:00;;;;;;;8.00;4.18;;;;;;;;;;5044604;28;20083;-67
2022/05/01 10:51:36;;;;;;;9.60;4.30;;;;;;;;;;5044287;28;20045;-67
2022/05/01 10:54:11;;;;;;;9.70;4.38;;;;;;;;;;5045693;28;20033;-67
2022/05/01 10:56:38;;;;;;;8.90;4.60;;;;;;;;;;5033101;28;20037;-67
2022/05/01 10:59:23;;;;;;;9.43;5.03;;;;;;;;;;5050415;28;20441;-67
2022/05/01 11:01:53;;;;;;;9.05;4.40;;;;;;;;;;5042255;28;20533;-67
2022/05/01 11:04:22;;;;;;;11.70;6.22;;;;;;;;;;5040722;28;20037;-67
2022/05/01 11:06:52;;;;;;;20.35;8.80;;;;;;;;;;5045615;28;20091;-67
2022/05/01 11:09:19;;;;;;;18.20;9.05;;;;;;;;;;4985151;28;20436;-67
2022/05/01 11:11:46;;;;;;;19.33;8.52;;;;;;;;;;4976112;28;20436;-66
2022/05/01 11:14:15;;;;;;;17.23;8.77;;;;;;;;;;4974239;28;20461;-66
2022/05/01 11:16:52;;;;;;;15.95;9.23;;;;;;;;;;4981492;28;20034;-66
2022/05/01 11:19:18;;;;;;;20.92;10.20;;;;;;;;;;4985191;28;20023;-66
2022/05/01 11:21:47;;;;;;;24.60;10.43;;;;;;;;;;4980386;28;20031;-66
2022/05/01 11:24:15;;;;;;;17.17;9.90;;;;;;;;;;4990439;28;20037;-66
2022/05/01 11:27:01;;;;;;;27.33;10.30;;;;;;;;;;4974159;28;20019;-67
2022/05/01 11:29:27;;;;;;;22.45;10.85;;;;;;;;;;4973394;28;20554;-66
2022/05/01 11:31:53;;;;;;;18.52;10.13;;;;;;;;;;4978678;28;20026;-67
2022/05/01 11:34:22;;;;;;;23.23;10.73;;;;;;;;;;4974431;28;20059;-66
2022/05/01 11:36:55;;;;;;;21.67;12.27;;;;;;;;;;4981751;28;20023;-66
2022/05/01 11:39:21;;;;;;;18.45;10.73;;;;;;;;;;4974611;28;20066;-66
2022/05/01 11:42:00;;;;;;;25.83;11.40;;;;;;;;;;4970198;28;20439;-66
2022/05/01 11:44:26;;;;;;;19.40;11.02;;;;;;;;;;4972292;28;20084;-66
2022/05/01 11:46:52;;;;;;;22.42;12.30;;;;;;;;;;4984984;28;20027;-66
2022/05/01 11:49:19;;;;;;;24.92;12.05;;;;;;;;;;4983481;28;20387;-66
2022/05/01 11:51:47;;;;;;;24.42;11.27;;;;;;;;;;4973062;28;20069;-66
2022/05/01 11:54:14;;;;;;;26.20;11.40;;;;;;;;;;4977430;28;20084;-66
2022/05/01 12:02:24;;;;;;;21.17;11.27;;;;;;;;;;4979294;28;20468;-66
2022/05/01 12:04:51;;;;;;;21.60;12.52;;;;;;;;;;4972342;28;20035;-66
2022/05/01 12:07:18;;;;;;;24.50;13.05;;;;;;;;;;4978030;28;20023;-67
2022/05/01 12:09:46;;;;;;;23.95;11.65;;;;;;;;;;4976518;28;20034;-67
2022/05/01 12:12:18;;;;;;;22.90;13.07;;;;;;;;;;4975628;28;20473;-67
2022/05/01 12:14:45;;;;;;;23.85;12.15;;;;;;;;;;4974024;28;20030;-67
2022/05/01 12:17:11;;;;;;;26.30;12.95;;;;;;;;;;4974485;28;20073;-67
2022/05/01 12:19:41;;;;;;;24.90;12.82;;;;;;;;;;4974436;28;20080;-67
2022/05/01 12:22:09;;;;;;;25.73;13.35;;;;;;;;;;4975166;28;20045;-67
2022/05/01 12:24:36;;;;;;;19.73;12.88;;;;;;;;;;4978754;28;20022;-67
2022/05/01 12:27:02;;;;;;;25.10;13.55;;;;;;;;;;4972631;28;20030;-67
2022/05/01 12:29:30;;;;;;;25.55;13.60;;;;;;;;;;4972714;28;20109;-67
2022/05/01 12:32:02;;;;;;;22.98;11.98;;;;;;;;;;4970820;28;20085;-67
2022/05/01 12:34:29;;;;;;;20.73;11.07;;;;;;;;;;4977078;28;20030;-67
2022/05/01 12:36:56;;;;;;;23.13;11.73;;;;;;;;;;4971547;28;20471;-67
2022/05/01 12:39:22;;;;;;;29.95;12.48;;;;;;;;;;4975993;28;20088;-67
2022/05/01 12:45:10;;;;;;;20.52;10.70;;;;;;;;;;4985571;28;20092;-67
2022/05/01 12:48:00;;;;;;;23.52;11.30;;;;;;;;;;4972420;28;20027;-67
2022/05/01 12:50:27;;;;;;;21.65;10.80;;;;;;;;;;4979732;28;20045;-67
2022/05/01 12:52:55;;;;;;;20.73;10.23;;;;;;;;;;4982839;28;20041;-67
2022/05/01 12:55:22;;;;;;;18.92;10.38;;;;;;;;;;4978077;28;20054;-67
2022/05/01 12:57:58;;;;;;;19.48;10.43;;;;;;;;;;4972289;28;20047;-67
2022/05/01 13:00:37;;;;;;;20.40;10.73;;;;;;;;;;4977166;28;20038;-67
2022/05/01 13:03:21;;;;;;;17.67;10.40;;;;;;;;;;4970800;28;20081;-67
2022/05/01 13:06:07;;;;;;;21.25;9.65;;;;;;;;;;4975918;28;20062;-67
2022/05/01 13:08:34;;;;;;;18.30;10.05;;;;;;;;;;4970938;28;20042;-67
2022/05/01 13:11:21;;;;;;;15.98;9.40;;;;;;;;;;4969361;28;20019;-67
2022/05/01 13:13:56;;;;;;;18.23;10.15;;;;;;;;;;4979829;28;20108;-67
2022/05/01 13:16:23;;;;;;;15.50;9.18;;;;;;;;;;4976973;28;20033;-67
2022/05/01 13:18:51;;;;;;;17.50;10.10;;;;;;;;;;4978727;28;20015;-67
2022/05/01 13:21:17;;;;;;;15.52;8.75;;;;;;;;;;4972712;28;20506;-67
2022/05/01 13:23:45;;;;;;;19.27;9.32;;;;;;;;;;4987054;28;20026;-67
2022/05/01 13:26:11;;;;;;;17.85;9.48;;;;;;;;;;4979172;28;20026;-67
2022/05/01 13:28:37;;;;;;;23.55;9.27;;;;;;;;;;4974776;28;20034;-67
2022/05/01 13:31:03;;;;;;;12.73;8.73;;;;;;;;;;4969856;28;20108;-67
2022/05/01 13:33:29;;;;;;;16.58;9.32;;;;;;;;;;4974965;28;20113;-67
2022/05/01 13:35:56;;;;;;;20.42;10.27;;;;;;;;;;4979878;28;20414;-67
2022/05/01 13:38:22;;;;;;;14.55;9.05;;;;;;;;;;4975914;28;20517;-67
2022/05/01 13:46:18;;;;;;;15.85;9.73;;;;;;;;;;4973291;28;20041;-67
2022/05/01 13:48:44;;;;;;;15.65;8.63;;;;;;;;;;4970923;28;20035;-67
2022/05/01 13:51:11;;;;;;;14.48;7.97;;;;;;;;;;4979530;28;20026;-67
2022/05/01 13:53:37;;;;;;;16.00;8.63;;;;;;;;;;4976294;28;20038;-67
2022/05/01 13:56:03;;;;;;;18.88;9.75;;;;;;;;;;4975274;28;20035;-67
2022/05/01 13:58:29;;;;;;;16.35;9.02;;;;;;;;;;4973762;28;20110;-67
2022/05/01 14:00:56;;;;;;;17.05;9.65;;;;;;;;;;4973693;28;20029;-67
2022/05/01 14:03:22;;;;;;;13.98;8.93;;;;;;;;;;4980360;28;20452;-67
2022/05/01 14:05:48;;;;;;;15.75;9.07;;;;;;;;;;4970167;28;20122;-67
2022/05/01 14:08:14;;;;;;;16.17;8.88;;;;;;;;;;4977030;28;20569;-67
2022/05/01 14:10:40;;;;;;;13.75;8.02;;;;;;;;;;4979678;28;20034;-67
2022/05/01 14:13:07;;;;;;;19.13;9.73;;;;;;;;;;4979968;28;20125;-67
2022/05/01 14:15:37;;;;;;;18.65;8.70;;;;;;;;;;4976303;28;20125;-67
2022/05/01 14:18:03;;;;;;;18.17;7.85;;;;;;;;;;4978420;28;20038;-67
2022/05/01 14:20:31;;;;;;;15.90;8.68;;;;;;;;;;5019914;28;20029;-67
2022/05/01 14:22:57;;;;;;;22.33;9.25;;;;;;;;;;4992720;28;20134;-67
2022/05/01 14:25:24;;;;;;;15.73;8.18;;;;;;;;;;4971192;28;20030;-67
2022/05/01 14:27:50;;;;;;;13.38;7.78;;;;;;;;;;4969711;28;20046;-67
2022/05/01 14:30:16;;;;;;;14.73;8.23;;;;;;;;;;4981526;28;20052;-67
2022/05/01 14:32:46;;;;;;;15.18;7.90;;;;;;;;;;4976158;28;20035;-67
2022/05/01 14:35:15;;;;;;;17.52;8.18;;;;;;;;;;4975926;28;20423;-67
2022/05/01 14:37:45;;;;;;;15.35;8.35;;;;;;;;;;4976982;28;20071;-67
2022/05/01 14:40:13;;;;;;;14.93;8.23;;;;;;;;;;4976549;28;20027;-67
2022/05/01 14:42:41;;;;;;;11.77;7.82;;;;;;;;;;4976789;28;20109;-67
2022/05/01 14:45:07;;;;;;;17.25;8.05;;;;;;;;;;4970749;28;20034;-67
2022/05/01 14:47:44;;;;;;;14.38;8.02;;;;;;;;;;4969945;28;20019;-67
2022/05/01 14:50:11;;;;;;;12.98;8.25;;;;;;;;;;4975573;28;20019;-67
2022/05/01 14:52:37;;;;;;;17.60;7.90;;;;;;;;;;4979030;28;20033;-67
2022/05/01 14:55:05;;;;;;;17.50;9.38;;;;;;;;;;4975103;28;20042;-67
2022/05/01 14:57:33;;;;;;;17.42;9.98;;;;;;;;;;4980708;28;20092;-67